Time;durP1;ratioP1;P1;durP2;ratioP2;P2;SDS_P1;SDS_P2;PMS_P1;PMS_P2;Temp;Humidity;BMP_temperature;BMP_pressure;BME280_temperature;BME280_humidity;BME280_pressure;Samples;Min_cycle;Max_cycle;Signal;HPM_P1;HPM_P2
2023/12/10 00:02:30;;;;;;;0.00;0.00;;;;;;;;;;4825026;29;20142;-83
2023/12/10 00:05:29;;;;;;;0.17;0.17;;;;;;;;;;4768484;30;20059;-83
2023/12/10 00:18:06;;;;;;;0.45;0.20;;;;;;;;;;4839090;29;20033;-82
2023/12/10 00:21:19;;;;;;;0.00;0.00;;;;;;;;;;4799854;29;20684;-83
2023/12/10 00:24:23;;;;;;;;;;;;;;;;;;;;;
2023/12/10 00:26:58;;;;;;;0.15;0.15;;;;;;;;;;4832760;29;20042;-82
2023/12/10 00:29:27;;;;;;;0.05;0.05;;;;;;;;;;4808455;29;20042;-82
2023/12/10 00:32:09;;;;;;;0.73;0.45;;;;;;;;;;4815514;29;20073;-83
2023/12/10 00:34:38;;;;;;;0.00;0.00;;;;;;;;;;4819867;29;20046;-83
2023/12/10 00:37:11;;;;;;;0.00;0.00;;;;;;;;;;4823586;29;20050;-82
2023/12/10 00:40:05;;;;;;;;;;;;;;;;;;;;;
2023/12/10 00:43:16;;;;;;;1.13;0.55;;;;;;;;;;4838523;29;20042;-82
2023/12/10 00:48:59;;;;;;;2.17;0.80;;;;;;;;;;4816035;29;20041;-82
2023/12/10 00:51:28;;;;;;;2.30;0.45;;;;;;;;;;4840239;29;20124;-82
2023/12/10 00:53:54;;;;;;;1.08;0.40;;;;;;;;;;4822261;29;20046;-82
2023/12/10 00:56:33;;;;;;;0.82;0.68;;;;;;;;;;4814395;29;20058;-83
2023/12/10 01:05:50;;;;;;;0.10;0.10;;;;;;;;;;4834594;29;20081;-83
2023/12/10 01:08:43;;;;;;;0.82;0.50;;;;;;;;;;4816576;29;20758;-83
2023/12/10 01:11:21;;;;;;;0.00;0.00;;;;;;;;;;4828389;29;20049;-83
2023/12/10 01:14:25;;;;;;;0.73;0.55;;;;;;;;;;4826371;29;20049;-83
2023/12/10 01:17:08;;;;;;;;;;;;;;;;;;;;;
2023/12/10 01:33:42;;;;;;;0.20;0.10;;;;;;;;;;4782993;29;20608;-83
2023/12/10 02:20:10;;;;;;;1.65;0.10;;;;;;;;;;840061;27;20308;-83
2023/12/10 02:22:53;;;;;;;0.40;0.40;;;;;;;;;;4806072;29;20049;-83
2023/12/10 02:49:41;;;;;;;;;;;;;;;;;;;;;
2023/12/10 02:52:39;;;;;;;2.22;0.50;;;;;;;;;;4823453;29;20056;-84
2023/12/10 03:35:24;;;;;;;0.20;0.10;;;;;;;;;;4799329;29;20506;-83
2023/12/10 03:48:02;;;;;;;1.38;0.65;;;;;;;;;;4743516;30;20093;-83
2023/12/10 03:50:28;;;;;;;5.82;1.33;;;;;;;;;;4747039;30;20059;-82
2023/12/10 03:52:57;;;;;;;6.60;2.20;;;;;;;;;;4771989;29;20046;-82
2023/12/10 03:55:29;;;;;;;0.20;0.10;;;;;;;;;;4802836;29;20054;-82
2023/12/10 03:58:00;;;;;;;1.40;0.60;;;;;;;;;;4800948;29;20056;-82
2023/12/10 04:00:35;;;;;;;5.03;1.03;;;;;;;;;;4796603;29;20050;-82
2023/12/10 04:03:10;;;;;;;5.10;0.90;;;;;;;;;;4772822;29;20046;-82
2023/12/10 04:05:56;;;;;;;2.35;0.68;;;;;;;;;;4785826;29;20073;-83
2023/12/10 04:08:57;;;;;;;;;;;;;;;;;;;;;
2023/12/10 04:12:30;;;;;;;;;;;;;;;;;;;;;
2023/12/10 04:18:48;;;;;;;1.27;0.63;;;;;;;;;;4744551;30;20957;-83
2023/12/10 04:21:27;;;;;;;0.57;0.45;;;;;;;;;;4684520;30;20057;-83
2023/12/10 04:27:46;;;;;;;;;;;;;;;;;;;;;
2023/12/10 05:04:50;;;;;;;1.00;0.47;;;;;;;;;;4835156;29;20106;-83
2023/12/10 05:24:40;;;;;;;0.80;0.52;;;;;;;;;;4744537;30;20041;-83
2023/12/10 05:27:34;;;;;;;;;;;;;;;;;;;;;
2023/12/10 05:30:09;;;;;;;2.53;0.75;;;;;;;;;;4846790;29;20407;-83
2023/12/10 05:48:20;;;;;;;;;;;;;;;;;;;;;
2023/12/10 05:53:50;;;;;;;0.20;0.20;;;;;;;;;;4802557;29;20051;-83
2023/12/10 05:57:01;;;;;;;;;;;;;;;;;;;;;
2023/12/10 06:02:43;;;;;;;0.68;0.40;;;;;;;;;;4825773;24;20115;-82
2023/12/10 06:08:20;;;;;;;0.73;0.35;;;;;;;;;;4822675;29;20047;-84
2023/12/10 06:10:55;;;;;;;1.98;0.47;;;;;;;;;;4806806;29;20042;-83
2023/12/10 06:13:36;;;;;;;1.95;0.90;;;;;;;;;;4822157;29;20378;-83
2023/12/10 06:16:53;;;;;;;0.05;0.05;;;;;;;;;;4820725;29;20058;-83
2023/12/10 06:28:25;;;;;;;0.20;0.20;;;;;;;;;;4767319;30;20107;-82
2023/12/10 06:30:51;;;;;;;0.65;0.20;;;;;;;;;;4783434;29;20038;-83
2023/12/10 06:33:17;;;;;;;1.73;0.88;;;;;;;;;;4830203;29;20065;-82
2023/12/10 06:35:43;;;;;;;12.43;0.60;;;;;;;;;;4828843;29;20126;-83
2023/12/10 06:38:17;;;;;;;2.58;0.85;;;;;;;;;;4818333;29;20038;-83
2023/12/10 06:40:45;;;;;;;0.98;0.30;;;;;;;;;;4814217;29;20038;-82
2023/12/10 06:43:12;;;;;;;4.05;0.80;;;;;;;;;;4820495;29;20042;-82
2023/12/10 06:45:38;;;;;;;1.00;0.77;;;;;;;;;;4805959;29;20087;-82
2023/12/10 06:48:06;;;;;;;0.50;0.30;;;;;;;;;;4805167;29;20043;-83
2023/12/10 06:50:41;;;;;;;5.47;1.17;;;;;;;;;;4805168;29;20412;-83
2023/12/10 06:53:10;;;;;;;0.60;0.45;;;;;;;;;;4799419;29;20042;-82
2023/12/10 06:55:38;;;;;;;5.90;1.20;;;;;;;;;;4805865;29;20046;-83
2023/12/10 06:58:04;;;;;;;0.30;0.30;;;;;;;;;;4804048;29;20073;-83
2023/12/10 07:00:31;;;;;;;0.75;0.32;;;;;;;;;;4805239;29;20051;-82
2023/12/10 07:02:57;;;;;;;3.03;0.70;;;;;;;;;;4820057;29;20132;-81
2023/12/10 07:05:23;;;;;;;0.47;0.15;;;;;;;;;;4825407;29;20061;-82
2023/12/10 07:07:49;;;;;;;1.13;0.75;;;;;;;;;;4823371;29;20034;-82
2023/12/10 07:10:15;;;;;;;3.70;1.17;;;;;;;;;;4840699;29;20037;-81
2023/12/10 07:12:41;;;;;;;2.30;0.28;;;;;;;;;;4835928;29;20034;-81
2023/12/10 07:15:07;;;;;;;3.03;1.67;;;;;;;;;;4827094;29;22304;-82
2023/12/10 07:17:33;;;;;;;0.88;0.70;;;;;;;;;;4833805;29;20069;-82
2023/12/10 07:19:59;;;;;;;1.83;0.73;;;;;;;;;;4832622;29;20491;-81
2023/12/10 07:22:25;;;;;;;1.70;0.70;;;;;;;;;;4830284;29;20048;-82
2023/12/10 07:24:51;;;;;;;1.73;0.60;;;;;;;;;;4826123;29;20043;-81
2023/12/10 07:27:17;;;;;;;1.15;0.55;;;;;;;;;;4832691;29;20053;-82
2023/12/10 07:29:43;;;;;;;3.75;0.88;;;;;;;;;;4828743;29;20626;-83
2023/12/10 07:32:09;;;;;;;0.40;0.30;;;;;;;;;;4822598;29;20041;-82
2023/12/10 07:34:35;;;;;;;1.38;0.75;;;;;;;;;;4821397;29;20529;-83
2023/12/10 07:37:01;;;;;;;0.65;0.40;;;;;;;;;;4835333;29;20095;-83
2023/12/10 07:39:27;;;;;;;1.35;0.85;;;;;;;;;;4821101;29;20046;-82
2023/12/10 07:41:53;;;;;;;3.95;1.45;;;;;;;;;;4839763;29;20045;-83
2023/12/10 07:44:19;;;;;;;2.22;0.55;;;;;;;;;;4838210;29;20052;-82
2023/12/10 07:46:50;;;;;;;4.93;0.45;;;;;;;;;;4825553;29;20083;-83
2023/12/10 07:49:17;;;;;;;1.03;0.63;;;;;;;;;;4820381;29;20050;-83
2023/12/10 07:51:45;;;;;;;6.07;0.40;;;;;;;;;;4822285;29;20391;-82
2023/12/10 07:54:11;;;;;;;0.45;0.35;;;;;;;;;;4820437;29;20867;-82
2023/12/10 07:56:37;;;;;;;1.40;0.47;;;;;;;;;;4820769;29;20128;-82
2023/12/10 07:59:03;;;;;;;2.95;1.27;;;;;;;;;;4821823;29;20057;-81
2023/12/10 08:01:29;;;;;;;3.15;1.40;;;;;;;;;;4841246;29;20049;-81
2023/12/10 08:04:01;;;;;;;2.13;0.85;;;;;;;;;;4821170;29;20141;-83
2023/12/10 08:06:27;;;;;;;2.35;1.08;;;;;;;;;;4839150;29;20598;-83
2023/12/10 08:08:53;;;;;;;0.73;0.50;;;;;;;;;;4833921;29;20038;-82
2023/12/10 08:11:20;;;;;;;2.35;1.52;;;;;;;;;;4826860;29;20068;-81
2023/12/10 08:13:47;;;;;;;2.55;1.63;;;;;;;;;;4829479;29;20530;-81
2023/12/10 08:16:14;;;;;;;6.22;0.93;;;;;;;;;;4821979;29;20054;-82
2023/12/10 08:18:40;;;;;;;1.75;0.98;;;;;;;;;;4844089;29;20069;-84
2023/12/10 08:21:08;;;;;;;3.53;1.30;;;;;;;;;;4821722;29;20366;-83
2023/12/10 08:23:34;;;;;;;4.22;2.13;;;;;;;;;;4828559;29;20042;-81
2023/12/10 08:26:00;;;;;;;4.22;1.60;;;;;;;;;;4838108;29;20048;-82
2023/12/10 08:28:26;;;;;;;5.18;1.83;;;;;;;;;;4819915;29;20041;-84
2023/12/10 08:30:52;;;;;;;3.70;1.80;;;;;;;;;;4825831;29;20484;-83
2023/12/10 08:33:18;;;;;;;4.35;1.60;;;;;;;;;;4831657;29;20082;-83
2023/12/10 08:35:44;;;;;;;5.15;1.90;;;;;;;;;;4822249;29;20054;-83
2023/12/10 08:50:36;;;;;;;4.25;2.22;;;;;;;;;;4812050;24;20062;-84
2023/12/10 08:53:02;;;;;;;;;;;;;;;;;;4829125;29;20043;-82
2023/12/10 08:55:28;;;;;;;5.03;2.58;;;;;;;;;;4838539;29;20016;-83
2023/12/10 08:57:54;;;;;;;6.72;3.22;;;;;;;;;;4834652;29;20133;-83
2023/12/10 09:00:20;;;;;;;4.28;2.35;;;;;;;;;;4829432;29;20054;-83
2023/12/10 09:02:47;;;;;;;4.43;1.30;;;;;;;;;;4840281;29;20041;-83
2023/12/10 09:05:13;;;;;;;6.60;1.58;;;;;;;;;;4823316;29;20113;-83
2023/12/10 09:07:39;;;;;;;3.35;2.10;;;;;;;;;;4839000;29;20476;-83
2023/12/10 09:10:05;;;;;;;1.77;1.30;;;;;;;;;;4835562;29;20608;-82
2023/12/10 09:12:31;;;;;;;3.78;2.20;;;;;;;;;;4831052;29;20042;-83
2023/12/10 09:14:57;;;;;;;5.00;2.30;;;;;;;;;;4825520;29;20495;-82
2023/12/10 09:17:23;;;;;;;3.17;1.17;;;;;;;;;;4836803;29;20038;-84
2023/12/10 09:23:37;;;;;;;;;;;;;;;;;;;;;
2023/12/10 09:34:55;;;;;;;2.08;0.82;;;;;;;;;;4807563;29;20104;-83
2023/12/10 09:37:23;;;;;;;2.72;1.67;;;;;;;;;;4822695;29;20046;-84
2023/12/10 09:39:49;;;;;;;4.18;1.85;;;;;;;;;;4806687;29;20050;-82
2023/12/10 09:42:15;;;;;;;0.50;0.30;;;;;;;;;;4820702;29;20087;-81
2023/12/10 09:44:41;;;;;;;5.45;1.45;;;;;;;;;;4810941;29;20115;-80
2023/12/10 09:47:11;;;;;;;4.65;1.00;;;;;;;;;;4821776;29;20046;-80
2023/12/10 09:49:38;;;;;;;1.20;0.80;;;;;;;;;;4817332;29;20054;-80
2023/12/10 09:52:08;;;;;;;4.85;1.00;;;;;;;;;;4824880;29;20082;-80
2023/12/10 09:54:37;;;;;;;1.50;0.60;;;;;;;;;;4823240;29;20046;-81
2023/12/10 09:57:03;;;;;;;1.00;0.52;;;;;;;;;;4821631;29;20046;-80
2023/12/10 09:59:29;;;;;;;1.92;0.95;;;;;;;;;;4823139;29;20066;-82
2023/12/10 10:01:55;;;;;;;1.70;0.52;;;;;;;;;;4823065;29;20046;-82
2023/12/10 10:04:21;;;;;;;0.30;0.30;;;;;;;;;;4822770;29;20046;-81
2023/12/10 10:06:47;;;;;;;3.70;1.30;;;;;;;;;;4817750;29;20064;-80
2023/12/10 10:09:13;;;;;;;1.42;1.10;;;;;;;;;;4823592;29;20080;-80
2023/12/10 10:11:39;;;;;;;2.05;0.80;;;;;;;;;;4822235;29;20050;-80
2023/12/10 10:14:05;;;;;;;1.98;0.82;;;;;;;;;;4822566;29;20042;-80
2023/12/10 10:16:31;;;;;;;0.65;0.40;;;;;;;;;;4821908;29;20074;-82
2023/12/10 10:18:59;;;;;;;5.13;1.10;;;;;;;;;;4807697;29;20054;-84
2023/12/10 10:21:25;;;;;;;3.53;1.65;;;;;;;;;;4833699;24;20390;-87
2023/12/10 10:23:51;;;;;;;0.77;0.55;;;;;;;;;;4826662;29;20046;-84
2023/12/10 10:29:27;;;;;;;10.57;1.35;;;;;;;;;;4888848;24;20057;-86
2023/12/10 10:31:57;;;;;;;5.32;1.95;;;;;;;;;;4808275;29;20073;-85
2023/12/10 10:35:14;;;;;;;2.42;0.68;;;;;;;;;;4811049;29;20397;-86
2023/12/10 10:37:40;;;;;;;6.47;1.77;;;;;;;;;;4717631;30;20112;-82
2023/12/10 10:40:07;;;;;;;8.57;2.78;;;;;;;;;;4727773;30;20060;-82
2023/12/10 10:43:06;;;;;;;2.30;1.40;;;;;;;;;;4773064;29;20058;-85
2023/12/10 10:45:41;;;;;;;3.10;1.00;;;;;;;;;;4740505;30;20081;-87
2023/12/10 10:48:35;;;;;;;1.05;0.55;;;;;;;;;;4788200;30;20050;-86
2023/12/10 10:51:01;;;;;;;4.22;1.48;;;;;;;;;;4787934;30;20043;-85
2023/12/10 10:53:28;;;;;;;3.20;1.42;;;;;;;;;;4776763;30;20044;-84
2023/12/10 10:55:56;;;;;;;8.63;1.88;;;;;;;;;;4772701;30;20043;-83
2023/12/10 11:04:50;;;;;;;10.95;1.95;;;;;;;;;;4721396;30;20043;-87
2023/12/10 11:07:24;;;;;;;1.30;0.98;;;;;;;;;;4788046;30;20599;-87
2023/12/10 11:18:33;;;;;;;2.65;1.83;;;;;;;;;;5017255;24;20520;-87
2023/12/10 11:21:35;;;;;;;2.28;1.38;;;;;;;;;;4886296;24;20421;-85
2023/12/10 11:24:10;;;;;;;1.17;0.95;;;;;;;;;;4955697;24;20070;-88
2023/12/10 12:05:39;;;;;;;5.15;1.52;;;;;;;;;;4824477;29;20145;-84
2023/12/10 12:08:06;;;;;;;8.40;1.73;;;;;;;;;;4824086;29;20149;-83
2023/12/10 12:10:45;;;;;;;8.07;1.23;;;;;;;;;;4811660;29;20047;-84
2023/12/10 12:13:11;;;;;;;3.10;0.80;;;;;;;;;;4801906;29;20533;-82
2023/12/10 12:15:37;;;;;;;0.55;0.25;;;;;;;;;;4825223;29;20591;-83
2023/12/10 12:18:03;;;;;;;1.90;1.08;;;;;;;;;;4824369;29;20053;-81
2023/12/10 12:20:32;;;;;;;2.65;0.68;;;;;;;;;;4825606;29;20083;-82
2023/12/10 12:23:20;;;;;;;5.35;1.00;;;;;;;;;;4805404;29;20080;-84
2023/12/10 12:25:46;;;;;;;4.07;0.47;;;;;;;;;;4830785;29;20049;-84
2023/12/10 12:28:31;;;;;;;;;;;;;;;;;;;;;
2023/12/10 12:30:57;;;;;;;2.60;0.63;;;;;;;;;;4833805;29;20046;-84
2023/12/10 12:34:20;;;;;;;3.20;1.13;;;;;;;;;;4808972;29;20458;-84
2023/12/10 12:40:22;;;;;;;1.23;0.88;;;;;;;;;;4732002;30;20056;-86
2023/12/10 12:42:48;;;;;;;4.05;1.25;;;;;;;;;;4760691;30;20140;-85
2023/12/10 12:45:15;;;;;;;0.82;0.28;;;;;;;;;;4749666;30;20179;-83
2023/12/10 12:47:49;;;;;;;1.77;0.85;;;;;;;;;;4898986;24;20141;-84
2023/12/10 12:50:16;;;;;;;2.28;1.35;;;;;;;;;;4816782;29;20141;-85
2023/12/10 12:52:42;;;;;;;0.77;0.30;;;;;;;;;;4802813;29;20440;-83
2023/12/10 12:55:08;;;;;;;1.83;1.02;;;;;;;;;;4821769;29;20046;-84
2023/12/10 12:57:34;;;;;;;2.80;0.73;;;;;;;;;;4802516;29;20069;-85
2023/12/10 13:00:08;;;;;;;1.90;0.55;;;;;;;;;;4803998;29;20512;-85
2023/12/10 13:02:43;;;;;;;7.53;1.98;;;;;;;;;;4792518;29;20051;-87
2023/12/10 13:05:35;;;;;;;3.63;0.80;;;;;;;;;;4803821;29;20084;-85
2023/12/10 13:08:36;;;;;;;2.45;0.95;;;;;;;;;;4780618;29;20039;-85
2023/12/10 13:13:34;;;;;;;5.45;2.05;;;;;;;;;;4836617;29;20148;-84
2023/12/10 13:16:04;;;;;;;0.77;0.40;;;;;;;;;;4826172;29;20120;-84
2023/12/10 13:18:30;;;;;;;2.47;0.75;;;;;;;;;;4828299;29;20038;-85
2023/12/10 13:20:56;;;;;;;2.80;0.90;;;;;;;;;;4846603;29;20054;-86
2023/12/10 13:23:25;;;;;;;1.85;0.70;;;;;;;;;;4950915;24;20156;-85
2023/12/10 13:38:10;;;;;;;2.00;1.00;;;;;;;;;;4744750;30;20060;-86
2023/12/10 13:40:37;;;;;;;0.82;0.65;;;;;;;;;;4755539;30;20062;-84
2023/12/10 13:43:10;;;;;;;0.75;0.32;;;;;;;;;;4750671;30;20067;-85
2023/12/10 13:45:38;;;;;;;1.75;1.13;;;;;;;;;;4748897;30;20055;-83
2023/12/10 13:48:37;;;;;;;9.20;0.75;;;;;;;;;;4739304;30;20040;-87
2023/12/10 13:51:18;;;;;;;0.93;0.47;;;;;;;;;;4737853;30;20107;-86
2023/12/10 13:53:49;;;;;;;3.05;0.73;;;;;;;;;;4735571;30;20640;-83
2023/12/10 13:56:37;;;;;;;5.85;1.60;;;;;;;;;;4731345;30;20726;-85
2023/12/10 14:05:53;;;;;;;2.90;0.63;;;;;;;;;;5467322;24;20073;-87
2023/12/10 14:15:16;;;;;;;1.25;0.82;;;;;;;;;;4766751;30;20054;-82
2023/12/10 14:17:42;;;;;;;0.32;0.20;;;;;;;;;;4761874;30;20064;-82
2023/12/10 14:20:09;;;;;;;0.80;0.20;;;;;;;;;;4820655;29;20049;-81
2023/12/10 14:22:36;;;;;;;1.23;0.40;;;;;;;;;;4835286;29;20404;-81
2023/12/10 14:25:02;;;;;;;0.35;0.25;;;;;;;;;;4833789;29;20034;-81
2023/12/10 14:27:28;;;;;;;1.55;0.68;;;;;;;;;;4822032;29;20479;-82
2023/12/10 14:29:54;;;;;;;1.67;0.40;;;;;;;;;;4839534;29;20556;-83
2023/12/10 14:35:06;;;;;;;1.75;0.60;;;;;;;;;;4829207;29;20071;-83
2023/12/10 14:37:32;;;;;;;0.70;0.28;;;;;;;;;;4841678;29;20045;-84
2023/12/10 14:39:58;;;;;;;0.30;0.17;;;;;;;;;;4825811;29;20042;-83
2023/12/10 14:42:24;;;;;;;1.55;0.40;;;;;;;;;;4831236;29;20161;-85
2023/12/10 14:44:50;;;;;;;5.68;1.42;;;;;;;;;;4837879;29;20041;-85
2023/12/10 14:47:22;;;;;;;0.52;0.45;;;;;;;;;;4832743;29;20042;-86
2023/12/10 14:49:48;;;;;;;5.65;1.60;;;;;;;;;;4835069;29;20484;-83
2023/12/10 14:52:14;;;;;;;0.40;0.15;;;;;;;;;;4832722;29;20042;-85
2023/12/10 14:54:40;;;;;;;1.65;0.65;;;;;;;;;;4834337;29;20045;-81
2023/12/10 14:57:06;;;;;;;0.65;0.50;;;;;;;;;;4841042;29;20157;-84
2023/12/10 14:59:33;;;;;;;0.38;0.30;;;;;;;;;;4821772;29;20050;-84
2023/12/10 15:01:59;;;;;;;0.73;0.32;;;;;;;;;;4824211;29;20504;-84
2023/12/10 15:04:25;;;;;;;0.65;0.35;;;;;;;;;;4831188;29;20073;-84
2023/12/10 15:06:51;;;;;;;0.60;0.35;;;;;;;;;;4831971;29;20058;-86
2023/12/10 15:09:17;;;;;;;0.50;0.28;;;;;;;;;;4833035;29;20116;-83
2023/12/10 15:11:43;;;;;;;2.08;1.30;;;;;;;;;;4839305;29;20054;-86
2023/12/10 15:14:09;;;;;;;0.43;0.38;;;;;;;;;;4843134;29;20066;-84
2023/12/10 15:17:19;;;;;;;2.97;1.20;;;;;;;;;;4832937;29;20056;-86
2023/12/10 15:20:19;;;;;;;3.83;1.77;;;;;;;;;;4821017;29;20857;-87
2023/12/10 15:22:57;;;;;;;2.92;1.70;;;;;;;;;;4844037;24;20090;-87
2023/12/10 15:25:24;;;;;;;1.38;0.98;;;;;;;;;;4817042;29;20126;-84
2023/12/10 15:27:51;;;;;;;6.28;1.08;;;;;;;;;;4809196;29;20068;-85
2023/12/10 15:30:17;;;;;;;1.98;0.32;;;;;;;;;;4800765;29;20170;-85
2023/12/10 15:32:44;;;;;;;4.75;1.02;;;;;;;;;;4817632;29;20125;-84
2023/12/10 15:35:28;;;;;;;1.67;1.08;;;;;;;;;;4819745;29;20041;-86
2023/12/10 15:38:07;;;;;;;4.40;0.98;;;;;;;;;;4826024;24;20085;-86
2023/12/10 15:40:43;;;;;;;3.33;0.70;;;;;;;;;;4838581;29;20046;-85
2023/12/10 15:43:09;;;;;;;1.63;0.85;;;;;;;;;;4839820;29;20055;-84
2023/12/10 15:45:37;;;;;;;1.67;0.90;;;;;;;;;;4842005;29;20507;-85
2023/12/10 15:48:09;;;;;;;0.85;0.30;;;;;;;;;;4839287;29;20136;-86
2023/12/10 15:50:56;;;;;;;;;;;;;;;;;;4840090;29;20407;-85
2023/12/10 15:53:31;;;;;;;1.17;0.40;;;;;;;;;;4862567;29;19913;-85
2023/12/10 15:55:59;;;;;;;0.70;0.30;;;;;;;;;;4842145;29;20061;-84
2023/12/10 15:58:28;;;;;;;1.70;1.17;;;;;;;;;;4831843;29;20052;-86
2023/12/10 16:03:30;;;;;;;3.88;0.93;;;;;;;;;;5279631;24;20141;-85
2023/12/10 16:05:56;;;;;;;3.13;0.70;;;;;;;;;;4833999;29;20058;-83
2023/12/10 16:08:22;;;;;;;2.28;1.08;;;;;;;;;;4828675;29;20053;-84
2023/12/10 16:11:14;;;;;;;3.00;1.05;;;;;;;;;;4830664;29;20050;-85
2023/12/10 16:17:01;;;;;;;;;;;;;;;;;;;;;
2023/12/10 16:19:30;;;;;;;4.65;1.25;;;;;;;;;;4800293;29;20512;-85
2023/12/10 16:27:35;;;;;;;1.17;0.68;;;;;;;;;;5068190;24;20149;-84
2023/12/10 16:30:28;;;;;;;2.17;0.38;;;;;;;;;;4824116;29;20125;-85
2023/12/10 17:01:16;;;;;;;2.95;0.95;;;;;;;;;;5218793;24;20060;-83
2023/12/10 17:03:45;;;;;;;6.00;1.27;;;;;;;;;;4799315;29;20039;-84
2023/12/10 17:06:11;;;;;;;2.08;0.90;;;;;;;;;;4804356;29;20055;-83
2023/12/10 17:08:40;;;;;;;1.23;0.50;;;;;;;;;;4788224;29;20039;-82
2023/12/10 17:11:09;;;;;;;1.83;0.65;;;;;;;;;;4788689;29;20081;-83
2023/12/10 17:13:35;;;;;;;6.28;1.00;;;;;;;;;;4787726;29;20038;-83
2023/12/10 17:16:30;;;;;;;;;;;;;;;;;;;;;
2023/12/10 17:19:06;;;;;;;3.08;0.70;;;;;;;;;;4827783;24;20385;-83
2023/12/10 17:21:32;;;;;;;1.55;0.70;;;;;;;;;;4845539;29;20045;-84
2023/12/10 17:23:58;;;;;;;1.92;0.95;;;;;;;;;;4914451;24;20089;-86
2023/12/10 17:26:24;;;;;;;1.48;0.50;;;;;;;;;;4825149;29;20042;-85
2023/12/10 17:28:50;;;;;;;1.38;0.52;;;;;;;;;;4845234;29;20042;-84
2023/12/10 17:31:17;;;;;;;0.30;0.20;;;;;;;;;;4825133;29;20445;-86
2023/12/10 17:34:17;;;;;;;1.38;0.82;;;;;;;;;;4848662;24;20055;-86
2023/12/10 17:42:32;;;;;;;6.47;1.13;;;;;;;;;;4918226;24;20057;-86
2023/12/10 17:53:14;;;;;;;2.67;0.50;;;;;;;;;;4823406;29;20054;-86
2023/12/10 18:31:44;;;;;;;0.65;0.50;;;;;;;;;;2805990;24;20328;-85
2023/12/10 18:34:26;;;;;;;2.30;0.85;;;;;;;;;;4823093;24;20103;-87
2023/12/10 18:44:46;;;;;;;0.65;0.57;;;;;;;;;;4238386;24;20021;-84
2023/12/10 18:47:40;;;;;;;2.28;0.85;;;;;;;;;;4823295;29;20066;-85
2023/12/10 19:06:07;;;;;;;;;;;;;;;;;;;;;
2023/12/10 19:09:04;;;;;;;;;;;;;;;;;;;;;
2023/12/10 20:15:29;;;;;;;0.13;0.03;;;;;;;;;;4853918;29;20404;-87
2023/12/10 20:21:42;;;;;;;;;;;;;;;;;;;;;
2023/12/10 20:24:24;;;;;;;0.43;0.00;;;;;;;;;;4886924;24;20047;-86
2023/12/10 20:27:16;;;;;;;0.00;0.00;;;;;;;;;;4815114;29;20043;-87
2023/12/10 20:29:48;;;;;;;0.08;0.08;;;;;;;;;;4812875;29;20050;-85
2023/12/10 20:49:10;;;;;;;1.65;0.57;;;;;;;;;;4745221;30;20048;-87
2023/12/10 20:52:02;;;;;;;0.32;0.17;;;;;;;;;;4752963;30;20048;-86
2023/12/10 20:54:53;;;;;;;0.53;0.20;;;;;;;;;;4826844;29;20050;-86
2023/12/10 20:57:30;;;;;;;0.63;0.30;;;;;;;;;;4778542;29;20038;-86
2023/12/10 21:00:10;;;;;;;0.13;0.10;;;;;;;;;;4811121;29;20141;-85
2023/12/10 21:02:45;;;;;;;0.10;0.10;;;;;;;;;;4753355;30;20190;-86
2023/12/10 21:05:25;;;;;;;0.30;0.15;;;;;;;;;;4749257;30;20044;-83
2023/12/10 21:07:51;;;;;;;0.05;0.00;;;;;;;;;;4739908;30;20529;-85
2023/12/10 21:10:20;;;;;;;0.55;0.20;;;;;;;;;;4746447;30;20492;-84
2023/12/10 21:12:46;;;;;;;1.20;0.43;;;;;;;;;;4754946;30;20063;-84
2023/12/10 21:15:33;;;;;;;;;;;;;;;;;;;;;
2023/12/10 21:18:03;;;;;;;0.00;0.00;;;;;;;;;;4765819;30;20406;-83
2023/12/10 21:20:31;;;;;;;0.70;0.20;;;;;;;;;;4750321;30;20499;-82
2023/12/10 21:22:57;;;;;;;0.10;0.00;;;;;;;;;;4763005;30;20083;-82
2023/12/10 21:25:23;;;;;;;0.40;0.13;;;;;;;;;;4757194;30;20040;-82
2023/12/10 21:27:49;;;;;;;0.20;0.00;;;;;;;;;;4762533;30;20054;-82
2023/12/10 21:30:15;;;;;;;0.38;0.15;;;;;;;;;;4753178;30;20043;-83
2023/12/10 21:32:41;;;;;;;0.00;0.00;;;;;;;;;;4759146;29;20062;-83
2023/12/10 21:35:07;;;;;;;0.25;0.15;;;;;;;;;;4819337;29;20740;-82
2023/12/10 21:37:33;;;;;;;0.20;0.20;;;;;;;;;;4814140;29;20576;-82
2023/12/10 21:39:59;;;;;;;0.10;0.10;;;;;;;;;;4819905;29;20076;-82
2023/12/10 21:42:26;;;;;;;0.20;0.13;;;;;;;;;;4825151;29;20086;-82
2023/12/10 21:44:52;;;;;;;0.00;0.00;;;;;;;;;;4825075;29;20041;-81
2023/12/10 21:47:18;;;;;;;0.10;0.03;;;;;;;;;;4824882;29;20537;-82
2023/12/10 21:49:44;;;;;;;0.82;0.40;;;;;;;;;;4825331;29;20114;-82
2023/12/10 21:52:10;;;;;;;1.23;1.00;;;;;;;;;;4810316;29;20137;-83
2023/12/10 21:54:36;;;;;;;1.17;0.43;;;;;;;;;;4808990;29;20370;-82
2023/12/10 21:57:02;;;;;;;0.50;0.13;;;;;;;;;;4824898;29;20053;-82
2023/12/10 21:59:28;;;;;;;0.45;0.13;;;;;;;;;;4803690;29;20083;-82
2023/12/10 22:01:54;;;;;;;0.15;0.10;;;;;;;;;;4824711;29;20400;-83
2023/12/10 22:04:20;;;;;;;0.70;0.28;;;;;;;;;;4824995;29;20047;-82
2023/12/10 22:06:46;;;;;;;1.38;0.80;;;;;;;;;;4807914;29;20046;-82
2023/12/10 22:09:12;;;;;;;3.40;0.57;;;;;;;;;;4820898;29;20096;-83
2023/12/10 22:11:38;;;;;;;0.30;0.20;;;;;;;;;;4816193;29;20115;-82
2023/12/10 22:14:04;;;;;;;1.17;0.38;;;;;;;;;;4810154;29;20050;-82
2023/12/10 22:16:30;;;;;;;0.10;0.10;;;;;;;;;;4824598;29;20056;-83
2023/12/10 22:18:56;;;;;;;0.65;0.17;;;;;;;;;;4827739;29;20046;-82
2023/12/10 22:21:22;;;;;;;2.45;1.00;;;;;;;;;;4834810;29;20061;-82
2023/12/10 22:23:48;;;;;;;2.03;0.80;;;;;;;;;;4824888;29;20043;-82
2023/12/10 22:26:14;;;;;;;0.00;0.00;;;;;;;;;;4806146;29;20054;-82
2023/12/10 22:28:40;;;;;;;0.17;0.08;;;;;;;;;;4824798;29;20099;-82
2023/12/10 22:31:08;;;;;;;4.10;0.75;;;;;;;;;;4823662;29;20042;-82
2023/12/10 22:33:34;;;;;;;0.00;0.00;;;;;;;;;;4828438;29;20176;-83
2023/12/10 22:36:03;;;;;;;0.10;0.10;;;;;;;;;;4823269;29;20121;-83
2023/12/10 22:38:33;;;;;;;0.47;0.10;;;;;;;;;;4823680;29;20119;-83
2023/12/10 22:41:00;;;;;;;1.08;0.47;;;;;;;;;;4821937;29;20074;-83
2023/12/10 22:43:26;;;;;;;0.15;0.03;;;;;;;;;;4819324;29;20492;-83
2023/12/10 22:45:52;;;;;;;0.03;0.00;;;;;;;;;;4823424;29;20073;-83
2023/12/10 22:48:18;;;;;;;1.58;0.38;;;;;;;;;;4826286;29;20047;-83
2023/12/10 22:50:44;;;;;;;0.40;0.17;;;;;;;;;;4823379;29;20065;-83
2023/12/10 22:53:10;;;;;;;2.58;1.15;;;;;;;;;;4828193;29;20049;-83
2023/12/10 22:55:36;;;;;;;1.92;1.25;;;;;;;;;;4806137;29;20038;-83
2023/12/10 22:58:03;;;;;;;0.68;0.65;;;;;;;;;;4821266;29;20049;-83
2023/12/10 23:00:30;;;;;;;0.35;0.15;;;;;;;;;;4818327;29;20090;-83
2023/12/10 23:02:56;;;;;;;0.57;0.35;;;;;;;;;;4806884;29;20055;-82
2023/12/10 23:05:22;;;;;;;1.45;0.45;;;;;;;;;;4823359;29;20046;-83
2023/12/10 23:07:48;;;;;;;7.30;3.08;;;;;;;;;;4824018;29;20057;-83
2023/12/10 23:10:14;;;;;;;2.03;0.60;;;;;;;;;;4823944;29;20125;-83
2023/12/10 23:12:40;;;;;;;1.30;0.50;;;;;;;;;;4824267;29;20133;-83
2023/12/10 23:15:07;;;;;;;0.17;0.00;;;;;;;;;;4823153;29;20439;-83
2023/12/10 23:17:33;;;;;;;0.95;0.52;;;;;;;;;;4813583;29;20043;-83
2023/12/10 23:19:59;;;;;;;0.10;0.08;;;;;;;;;;4817723;29;20038;-83
2023/12/10 23:22:25;;;;;;;0.88;0.10;;;;;;;;;;4823758;29;20060;-83
2023/12/10 23:24:51;;;;;;;0.80;0.22;;;;;;;;;;4818668;29;20046;-83
2023/12/10 23:27:17;;;;;;;0.35;0.28;;;;;;;;;;4813816;29;20050;-83
2023/12/10 23:29:43;;;;;;;0.10;0.10;;;;;;;;;;4809877;29;20046;-83
2023/12/10 23:32:09;;;;;;;0.00;0.00;;;;;;;;;;4807104;29;20081;-83
2023/12/10 23:34:35;;;;;;;0.10;0.10;;;;;;;;;;4788899;29;20058;-83
2023/12/10 23:37:01;;;;;;;0.20;0.10;;;;;;;;;;4820817;29;20034;-84
2023/12/10 23:39:27;;;;;;;0.00;0.00;;;;;;;;;;4805315;29;20050;-83
2023/12/10 23:41:53;;;;;;;0.38;0.25;;;;;;;;;;4823790;29;20388;-83
2023/12/10 23:44:19;;;;;;;15.00;0.65;;;;;;;;;;4806625;29;20046;-83
2023/12/10 23:46:45;;;;;;;2.70;1.45;;;;;;;;;;4823310;29;20103;-83
2023/12/10 23:49:11;;;;;;;1.23;0.90;;;;;;;;;;4804090;29;20050;-83
2023/12/10 23:51:37;;;;;;;0.30;0.08;;;;;;;;;;4818891;29;20053;-83
2023/12/10 23:54:03;;;;;;;0.82;0.25;;;;;;;;;;4813456;29;20054;-84
2023/12/10 23:56:29;;;;;;;1.27;0.32;;;;;;;;;;4823401;29;20401;-83
2023/12/10 23:58:55;;;;;;;0.30;0.22;;;;;;;;;;4822656;29;20054;-83
